Station: ELLX - 24/07/2021 03:20Z (il y a 12 minutes)
ELLX 240320Z 07006KT 050V110 CAVOK 17/12 Q1010 NOSIG
Vent du 070º - 6 kt (vent de direction variable de 050º à 110º)
Visibilité > 10 km et plafond haut ou pas de nuages significatifs
Température: +17ºC - Point de rosée: +12ºC - QNH: 1010 hPa
Pas de changement significatif prévu dans les 2 heures qui suivent l'observation